Time;durP1;ratioP1;P1;durP2;ratioP2;P2;SDS_P1;SDS_P2;PMS_P1;PMS_P2;Temp;Humidity;BMP_temperature;BMP_pressure;BME280_temperature;BME280_humidity;BME280_pressure;Samples;Min_cycle;Max_cycle;Signal;HPM_P1;HPM_P2
2022/01/01 00:02:17;;;;;;;;;3.00;2.00;;;;;13.08;73.92;102137.28;5019758;27;45315;-87
2022/01/01 00:04:43;;;;;;;;;3.25;1.25;;;;;12.34;74.14;102022.50;5010199;28;45363;-88
2022/01/01 00:07:10;;;;;;;;;2.25;2.25;;;;;13.10;74.33;102156.50;5016953;28;46724;-90
2022/01/01 00:09:36;;;;;;;;;0.00;0.00;;;;;12.91;74.21;102122.13;5013895;28;45438;-89
2022/01/01 00:12:01;;;;;;;;;2.50;2.00;;;;;12.91;74.12;102127.38;5005695;28;45426;-92
2022/01/01 00:14:28;;;;;;;;;2.50;0.50;;;;;12.84;73.90;102111.50;5016033;27;45454;-89
2022/01/01 00:16:54;;;;;;;;;4.00;3.00;;;;;13.05;74.13;102159.00;5006834;27;45697;-90
2022/01/01 00:19:19;;;;;;;;;7.00;2.00;;;;;13.13;73.90;102181.81;5008992;28;45587;-90
2022/01/01 00:21:45;;;;;;;;;1.25;1.25;;;;;12.50;74.31;102075.09;5006264;28;45392;-89
2022/01/01 00:24:11;;;;;;;;;2.00;1.50;;;;;13.03;74.00;102163.34;5020709;27;44858;-89
2022/01/01 00:26:36;;;;;;;;;3.50;2.25;;;;;12.80;73.95;102139.28;5011586;28;46233;-90
2022/01/01 00:29:02;;;;;;;;;2.75;2.75;;;;;12.92;74.22;102162.19;5016406;28;45413;-90
2022/01/01 00:31:29;;;;;;;;;2.50;2.25;;;;;12.42;73.99;102069.69;5019508;28;45405;-90
2022/01/01 03:19:54;;;;;;;;;3.50;2.00;;;;;12.29;75.46;102193.88;6163710;22;46736;31
2022/01/01 03:22:22;;;;;;;;;3.00;2.00;;;;;11.17;75.26;102024.00;5013309;28;45571;-89
2022/01/01 03:24:53;;;;;;;;;4.00;2.00;;;;;11.63;75.55;102093.03;5020160;28;45710;-89
2022/01/01 03:27:19;;;;;;;;;1.75;0.50;;;;;11.70;75.32;102095.81;5023439;28;45549;-92
2022/01/01 03:29:47;;;;;;;;;1.00;1.00;;;;;11.21;75.38;102015.44;5030036;28;45015;-91
2022/01/01 03:32:31;;;;;;;;;1.75;1.75;;;;;11.31;75.05;102020.06;5227215;22;44749;-90
2022/01/01 03:35:09;;;;;;;;;4.00;2.50;;;;;11.71;75.43;102089.72;5075612;28;44848;-88
2022/01/01 03:37:52;;;;;;;;;4.25;1.75;;;;;11.74;75.14;102089.81;5070141;28;45532;-89
2022/01/01 03:40:34;;;;;;;;;1.50;1.50;;;;;11.73;75.01;102091.53;5065521;28;45481;-89
2022/01/01 03:43:35;;;;;;;;;3.00;3.00;;;;;11.93;75.23;102121.56;5050184;28;45389;-93
2022/01/01 03:46:03;;;;;;;;;3.00;2.75;;;;;11.86;75.17;102121.44;4987149;28;45326;-90
2022/01/01 03:48:58;;;;;;;;;2.00;2.00;;;;;11.36;75.37;102051.47;5055076;28;46760;-90
2022/01/01 03:51:27;;;;;;;;;2.25;2.00;;;;;11.15;75.42;102013.56;5044119;28;45505;-89
2022/01/01 03:54:04;;;;;;;;;1.00;1.00;;;;;12.16;75.42;102183.09;5044802;28;45475;-89
2022/01/01 03:56:47;;;;;;;;;3.00;1.75;;;;;11.79;75.12;102127.31;5054593;28;45502;-90
2022/01/01 03:59:32;;;;;;;;;3.75;2.00;;;;;11.50;75.08;102088.31;5061665;28;45561;-89
2022/01/01 04:02:39;;;;;;;;;3.50;2.00;;;;;11.97;75.26;102175.63;5042667;28;45438;-92
2022/01/01 04:05:10;;;;;;;;;1.50;0.50;;;;;11.11;75.29;102032.53;5043107;28;45423;-92
2022/01/01 04:07:44;;;;;;;;;4.75;1.50;;;;;12.04;75.33;102182.78;5029523;28;45545;-92
2022/01/01 04:10:21;;;;;;;;;1.50;1.50;;;;;11.08;75.46;102014.22;5036473;28;45497;-90
2022/01/01 04:12:58;;;;;;;;;2.00;1.75;;;;;11.01;75.47;102005.38;5032783;28;45455;-91
2022/01/01 04:15:29;;;;;;;;;2.25;2.25;;;;;10.98;75.71;102006.16;5043350;28;45501;-91
2022/01/01 04:18:06;;;;;;;;;0.75;0.75;;;;;11.61;75.65;102112.97;5044507;28;45305;-91
2022/01/01 04:20:32;;;;;;;;;9.50;9.50;;;;;11.91;75.46;102178.94;5037781;28;46936;-90
2022/01/01 04:23:06;;;;;;;;;6.75;4.75;;;;;11.74;75.63;102155.94;5043598;28;45499;-91
2022/01/01 04:25:43;;;;;;;;;2.50;1.00;;;;;11.88;75.76;102178.88;5043725;28;45440;-91
2022/01/01 04:28:12;;;;;;;;;2.00;2.00;;;;;11.50;75.89;102114.41;5048586;28;44783;-91
2022/01/01 04:30:38;;;;;;;;;2.75;2.25;;;;;11.81;75.73;102166.50;5045010;28;46886;-90
2022/01/01 04:33:04;;;;;;;;;2.00;2.00;;;;;11.09;75.86;102061.16;5043766;28;45275;-92
2022/01/01 04:35:32;;;;;;;;;1.25;1.25;;;;;11.77;75.80;102170.78;5045788;28;45395;-91
2022/01/01 04:38:06;;;;;;;;;4.75;2.25;;;;;11.11;76.09;102069.03;5043217;28;45484;-92
2022/01/01 04:40:49;;;;;;;;;3.25;3.25;;;;;11.09;75.92;102061.16;5043269;28;45605;-92
2022/01/01 04:43:50;;;;;;;;;3.75;2.75;;;;;11.06;76.12;102065.44;5044528;28;45444;-93
2022/01/01 04:46:29;;;;;;;;;5.25;1.50;;;;;10.98;75.69;102073.03;5042745;28;44823;-92
2022/01/01 04:49:43;;;;;;;;;1.25;1.25;;;;;10.81;76.05;102041.28;5043434;28;45564;-92
2022/01/01 04:52:16;;;;;;;;;1.25;1.25;;;;;10.97;76.30;102082.53;5016740;28;46248;-92
2022/01/01 04:54:56;;;;;;;;;0.00;0.00;;;;;11.05;76.51;102095.81;5061474;28;45217;-92
2022/01/01 04:57:33;;;;;;;;;0.50;0.25;;;;;11.50;76.42;102170.06;5082868;27;44834;-92
2022/01/01 05:00:11;;;;;;;;;0.25;0.25;;;;;11.04;76.51;102099.25;5067283;28;44965;-93
2022/01/01 05:02:50;;;;;;;;;3.00;1.75;;;;;11.44;76.52;102169.88;5067469;28;45533;-91
2022/01/01 05:05:16;;;;;;;;;1.25;1.25;;;;;11.14;76.41;102119.53;5062714;28;45496;-86
2022/01/01 05:07:43;;;;;;;;;3.00;1.25;;;;;10.51;76.29;102023.06;5046753;28;45579;-86
2022/01/01 05:10:09;;;;;;;;;1.00;1.00;;;;;11.47;76.64;102193.44;5055013;28;45458;-85
2022/01/01 05:12:35;;;;;;;;;2.50;2.00;;;;;10.88;76.33;102100.53;5048970;28;45671;-86
2022/01/01 05:15:00;;;;;;;;;2.50;2.50;;;;;10.82;76.25;102088.22;5039818;28;45507;-86
2022/01/01 05:17:26;;;;;;;;;0.75;0.75;;;;;10.96;76.38;102116.41;5056592;28;45300;-86
2022/01/01 05:19:51;;;;;;;;;1.25;0.75;;;;;10.84;76.27;102102.16;5040066;28;45371;-86
2022/01/01 05:22:16;;;;;;;;;1.00;1.00;;;;;10.65;76.50;102087.72;5041303;28;45852;-85
2022/01/01 05:24:42;;;;;;;;;1.25;0.50;;;;;10.70;76.20;102085.25;5039668;28;45300;-86
2022/01/01 05:27:07;;;;;;;;;1.50;1.25;;;;;10.74;76.47;102094.91;5040310;28;45635;-86
2022/01/01 05:29:33;;;;;;;;;0.75;0.75;;;;;10.51;76.62;102067.34;5040149;28;45292;-86
2022/01/01 05:31:58;;;;;;;;;0.50;0.50;;;;;10.92;76.58;102133.66;5048692;28;46787;-86
2022/01/01 05:34:24;;;;;;;;;0.50;0.50;;;;;10.71;76.35;102097.41;5065346;28;44955;-85
2022/01/01 05:36:49;;;;;;;;;0.50;0.50;;;;;10.72;76.41;102096.59;5060586;28;44722;-85
2022/01/01 05:39:15;;;;;;;;;3.75;2.50;;;;;10.94;76.69;102125.88;5078301;27;44863;-88
2022/01/01 05:41:40;;;;;;;;;1.50;1.50;;;;;11.29;76.52;102178.16;5065083;28;46740;-87
2022/01/01 05:44:06;;;;;;;;;0.50;0.00;;;;;10.70;76.57;102069.63;5062060;28;44788;-88
2022/01/01 05:46:32;;;;;;;;;2.50;1.25;;;;;10.82;76.55;102095.16;5057661;28;45638;-88
2022/01/01 05:48:58;;;;;;;;;0.50;0.50;;;;;10.61;76.49;102060.72;5038637;28;45425;-88
2022/01/01 05:51:24;;;;;;;;;1.50;0.50;;;;;10.67;76.54;102074.72;5056849;28;47021;-88
2022/01/01 05:53:49;;;;;;;;;0.25;0.25;;;;;10.08;76.58;101983.59;5034517;28;45623;-86
2022/01/01 05:56:15;;;;;;;;;0.00;0.00;;;;;10.60;76.38;102086.69;5023220;28;45481;-88
2022/01/01 05:58:40;;;;;;;;;2.25;0.75;;;;;10.81;76.63;102106.41;5047620;28;45399;-88
2022/01/01 06:01:06;;;;;;;;;0.50;0.50;;;;;10.63;76.74;102092.88;5044442;28;45813;-88
2022/01/01 06:03:31;;;;;;;;;1.00;1.00;;;;;10.15;76.58;102002.88;5042978;28;45358;-88
2022/01/01 06:05:57;;;;;;;;;1.25;1.25;;;;;10.75;76.73;102104.50;5052989;28;45387;-88
2022/01/01 06:08:24;;;;;;;;;5.25;2.50;;;;;10.74;76.85;102095.81;5050510;28;45553;-88
2022/01/01 06:10:55;;;;;;;;;1.75;0.50;;;;;10.40;76.84;102034.88;5044475;28;46228;-89
2022/01/01 06:13:21;;;;;;;;;0.00;0.00;;;;;10.49;76.45;102053.41;5023020;28;45321;-87
2022/01/01 06:15:47;;;;;;;;;0.25;0.25;;;;;10.12;76.35;101993.28;5024036;28;45439;-89
2022/01/01 06:18:15;;;;;;;;;1.25;1.00;;;;;10.49;76.48;102055.13;5024277;28;45411;-88
2022/01/01 06:20:43;;;;;;;;;0.50;0.50;;;;;10.66;76.39;102076.47;5041470;28;47329;-89
2022/01/01 06:23:09;;;;;;;;;0.50;0.50;;;;;10.57;76.52;102060.56;5053521;28;45463;-89
2022/01/01 06:25:35;;;;;;;;;1.00;1.00;;;;;10.52;76.43;102052.59;5060809;28;45343;-89
2022/01/01 06:28:11;;;;;;;;;0.00;0.00;;;;;11.17;75.96;102159.53;5036005;28;45669;-88
2022/01/01 06:30:37;;;;;;;;;2.00;1.00;;;;;10.80;76.03;102099.41;5025999;28;46920;-88
2022/01/01 06:33:15;;;;;;;;;0.75;0.75;;;;;11.11;76.00;102174.16;5060697;28;45379;-88
2022/01/01 06:35:45;;;;;;;;;2.00;1.75;;;;;10.72;76.02;102113.09;5063787;28;45478;-87
2022/01/01 06:38:12;;;;;;;;;0.50;0.25;;;;;10.17;76.25;102018.56;5051174;28;45704;-88
2022/01/01 06:40:41;;;;;;;;;4.50;1.00;;;;;10.97;76.14;102165.06;5072473;28;47350;-87
2022/01/01 06:43:09;;;;;;;;;0.75;0.75;;;;;9.72;76.32;101951.28;5055661;28;44804;-88
2022/01/01 06:45:35;;;;;;;;;1.75;1.00;;;;;10.27;76.25;102044.88;5051212;28;44836;-88
2022/01/01 06:48:09;;;;;;;;;0.25;0.25;;;;;9.86;76.41;101969.03;5049601;28;45423;-87
2022/01/01 06:50:38;;;;;;;;;0.00;0.00;;;;;10.12;76.37;102034.00;5041159;28;45713;-88
2022/01/01 06:53:12;;;;;;;;;2.00;0.00;;;;;10.59;76.62;102106.63;5037167;28;45421;-87
2022/01/01 06:55:43;;;;;;;;;0.75;0.75;;;;;10.86;76.60;102162.13;5025739;28;45371;-87
2022/01/01 06:58:24;;;;;;;;;1.00;1.00;;;;;10.82;76.69;102155.94;5048758;28;45430;-87
2022/01/01 07:00:50;;;;;;;;;2.75;0.75;;;;;10.14;76.45;102059.25;5040217;28;47713;-90
2022/01/01 07:03:22;;;;;;;;;1.00;0.75;;;;;10.06;76.54;102047.72;5028198;28;45727;-89
2022/01/01 07:05:48;;;;;;;;;1.25;1.25;;;;;10.11;76.46;102042.66;5063146;28;45308;-88
2022/01/01 07:08:13;;;;;;;;;1.00;0.00;;;;;10.42;76.57;102097.38;5055352;28;45397;-89
2022/01/01 07:10:41;;;;;;;;;0.50;0.25;;;;;10.39;76.60;102099.06;5056213;28;47048;-88
2022/01/01 07:13:14;;;;;;;;;1.00;1.00;;;;;10.73;76.61;102148.75;5063121;28;45423;-89
2022/01/01 07:15:40;;;;;;;;;1.00;1.00;;;;;10.10;76.58;102039.16;5061371;28;45463;-88
2022/01/01 07:18:06;;;;;;;;;2.00;2.00;;;;;10.17;76.42;102042.84;5047610;28;45592;-88
2022/01/01 07:20:32;;;;;;;;;0.00;0.00;;;;;10.36;76.41;102078.13;5034321;28;46853;-89
2022/01/01 07:23:00;;;;;;;;;1.00;1.00;;;;;10.84;76.42;102145.59;5029082;28;44960;-88
2022/01/01 07:25:29;;;;;;;;;0.00;0.00;;;;;10.21;76.02;102042.13;5029451;28;45644;-89
2022/01/01 07:28:00;;;;;;;;;0.00;0.00;;;;;9.62;76.13;101946.63;5034930;28;45529;-89
2022/01/01 07:30:29;;;;;;;;;1.00;1.00;;;;;10.18;76.11;102056.75;5024949;28;46341;-89
2022/01/01 07:32:58;;;;;;;;;0.75;0.25;;;;;10.23;75.97;102063.84;5038671;28;45315;-89
2022/01/01 07:35:51;;;;;;;;;0.00;0.00;;;;;9.85;76.05;101985.47;5066364;28;45529;-88
2022/01/01 07:38:16;;;;;;;;;1.00;1.00;;;;;9.91;75.85;101990.88;5040958;28;45513;-86
2022/01/01 07:40:42;;;;;;;;;0.00;0.00;;;;;10.33;75.87;102066.75;5037241;28;45503;-86
2022/01/01 07:43:12;;;;;;;;;0.25;0.25;;;;;10.90;75.96;102167.47;5041719;28;45398;-87
2022/01/01 07:45:38;;;;;;;;;0.75;0.75;;;;;10.31;75.81;102050.19;5039720;28;45451;-87
2022/01/01 07:48:06;;;;;;;;;0.00;0.00;;;;;10.34;75.75;102052.88;5062757;27;45522;-87
2022/01/01 07:50:31;;;;;;;;;0.50;0.50;;;;;10.94;75.66;102150.22;5044929;28;47426;-86
2022/01/01 07:52:57;;;;;;;;;1.75;1.75;;;;;10.24;75.69;102041.31;5042385;28;45448;-85
2022/01/01 07:55:22;;;;;;;;;1.00;0.75;;;;;10.73;75.57;102125.31;5036105;28;45417;-88
2022/01/01 07:57:47;;;;;;;;;0.00;0.00;;;;;10.02;75.86;102007.69;5035852;28;45580;-86
2022/01/01 08:00:13;;;;;;;;;1.25;0.50;;;;;10.94;75.67;102167.56;5038537;28;46050;-86
2022/01/01 08:02:43;;;;;;;;;0.50;0.50;;;;;10.59;75.90;102109.25;5042003;28;45431;-85
2022/01/01 08:05:09;;;;;;;;;0.75;0.50;;;;;10.70;75.26;102132.13;5044197;28;45307;-85
2022/01/01 08:07:35;;;;;;;;;1.25;0.00;;;;;10.60;75.75;102112.75;5042902;28;45388;-85
2022/01/01 08:10:00;;;;;;;;;1.75;1.25;;;;;10.46;75.64;102094.97;5029619;28;47700;-85
2022/01/01 08:12:26;;;;;;;;;1.00;1.00;;;;;10.91;75.56;102176.19;5028905;28;45509;-87
2022/01/01 08:14:54;;;;;;;;;1.00;1.00;;;;;10.43;75.55;102093.94;5027719;28;45483;-86
2022/01/01 08:17:20;;;;;;;;;0.75;0.75;;;;;10.92;75.25;102158.81;5032871;28;45610;-89
2022/01/01 08:19:46;;;;;;;;;0.00;0.00;;;;;10.67;75.30;102121.59;5030308;28;47951;-86
2022/01/01 08:22:13;;;;;;;;;2.00;2.00;;;;;10.86;75.49;102149.09;5024702;28;45516;-86
2022/01/01 08:24:39;;;;;;;;;1.00;1.00;;;;;10.58;75.41;102111.78;5032727;28;45823;-86
2022/01/01 08:27:05;;;;;;;;;0.00;0.00;;;;;10.33;75.04;102062.44;5028673;28;45383;-87
2022/01/01 08:29:31;;;;;;;;;1.25;1.25;;;;;10.09;75.44;102016.59;5035870;28;45968;-83
2022/01/01 08:31:57;;;;;;;;;0.50;0.50;;;;;10.64;75.35;102122.41;5050266;28;45517;-87
2022/01/01 08:34:23;;;;;;;;;0.75;0.00;;;;;10.75;75.34;102154.00;5032062;28;45427;-87
2022/01/01 08:36:49;;;;;;;;;1.50;0.50;;;;;10.69;75.97;102132.97;5051929;28;45429;-85
2022/01/01 08:39:15;;;;;;;;;1.25;0.00;;;;;10.18;75.18;102052.44;5037267;28;46281;-84
2022/01/01 08:41:41;;;;;;;;;0.00;0.00;;;;;10.14;75.21;102045.38;5038388;28;45489;-84
2022/01/01 08:44:10;;;;;;;;;1.25;0.00;;;;;10.73;75.54;102142.63;5044504;28;45465;-89
2022/01/01 08:46:36;;;;;;;;;1.00;1.00;;;;;10.08;75.37;102034.75;5030015;28;45784;-89
2022/01/01 08:49:03;;;;;;;;;1.00;1.00;;;;;9.72;75.18;101966.91;5041260;28;47443;-85
2022/01/01 08:51:29;;;;;;;;;0.00;0.00;;;;;10.55;75.11;102109.09;5043772;28;45481;-88
2022/01/01 08:53:56;;;;;;;;;0.00;0.00;;;;;10.70;75.54;102130.41;5042655;28;45492;-88
2022/01/01 08:56:22;;;;;;;;;0.00;0.00;;;;;9.83;74.96;101977.63;5037372;28;45401;-88
2022/01/01 08:58:47;;;;;;;;;1.50;1.00;;;;;10.22;75.04;102038.66;5040526;28;47210;-86
2022/01/01 09:01:13;;;;;;;;;1.25;1.25;;;;;10.49;75.02;102084.66;5034637;28;45488;-85
2022/01/01 09:03:38;;;;;;;;;0.25;0.25;;;;;10.91;74.89;102147.53;5033632;28;45502;-87
2022/01/01 09:06:05;;;;;;;;;0.00;0.00;;;;;10.95;74.92;102154.59;5031818;28;46052;-88
2022/01/01 09:08:32;;;;;;;;;1.50;1.50;;;;;11.00;74.73;102150.38;5034678;28;47672;-88
2022/01/01 09:10:58;;;;;;;;;0.75;0.75;;;;;10.86;74.15;102107.41;5039680;28;45781;-86
2022/01/01 09:13:23;;;;;;;;;0.75;0.75;;;;;10.97;74.42;102105.13;5047755;28;45212;-93
2022/01/01 09:15:49;;;;;;;;;1.25;0.00;;;;;10.50;74.03;102010.91;5038013;28;45585;-83
2022/01/01 09:18:15;;;;;;;;;1.00;1.00;;;;;10.53;73.99;102023.13;5044470;28;45511;-81
2022/01/01 09:20:40;;;;;;;;;1.00;1.00;;;;;10.93;74.08;102075.50;5043970;28;45516;-85
2022/01/01 09:23:06;;;;;;;;;1.50;0.00;;;;;11.08;73.87;102063.72;5046612;28;45596;-86
2022/01/01 09:25:31;;;;;;;;;1.00;1.00;;;;;11.12;73.72;102055.19;5043630;28;45336;-87
2022/01/01 09:27:56;;;;;;;;;0.00;0.00;;;;;11.19;73.59;102064.94;5032285;28;47959;-85
2022/01/01 09:30:23;;;;;;;;;1.00;1.00;;;;;10.98;72.97;102003.56;5044449;28;45269;-85
2022/01/01 09:32:48;;;;;;;;;0.25;0.00;;;;;10.97;73.19;102014.81;5034996;28;45533;-83
2022/01/01 09:35:16;;;;;;;;;0.50;0.50;;;;;10.81;72.83;101970.97;5056302;28;45327;-84
2022/01/01 09:37:42;;;;;;;;;1.25;0.25;;;;;11.17;73.28;102037.03;5044054;28;47463;-84
2022/01/01 09:40:08;;;;;;;;;0.25;0.00;;;;;11.56;72.78;102093.72;5047625;28;45496;-84
2022/01/01 09:42:34;;;;;;;;;0.00;0.00;;;;;11.21;72.47;102031.09;5024060;28;45589;-89
2022/01/01 09:45:04;;;;;;;;;0.00;0.00;;;;;11.25;72.50;102038.16;5056506;28;45588;-87
2022/01/01 09:47:30;;;;;;;;;0.00;0.00;;;;;11.34;72.24;102045.31;5043613;28;48502;-87
2022/01/01 09:49:55;;;;;;;;;0.50;0.50;;;;;11.42;72.74;102043.78;5040103;28;45391;-85
2022/01/01 09:52:21;;;;;;;;;0.50;0.00;;;;;11.60;72.51;102065.97;5040574;28;45522;-82
2022/01/01 09:54:46;;;;;;;;;0.50;0.50;;;;;11.46;72.09;102031.72;5054825;28;45480;-88
2022/01/01 09:57:12;;;;;;;;;0.00;0.00;;;;;11.77;71.60;102058.59;5041735;28;48066;-85
2022/01/01 09:59:39;;;;;;;;;0.25;0.25;;;;;11.61;71.50;102029.50;5043505;28;45532;-82
2022/01/01 10:02:05;;;;;;;;;0.25;0.25;;;;;11.68;71.66;102021.81;5049523;28;45578;-86
2022/01/01 10:04:41;;;;;;;;;0.00;0.00;;;;;11.75;71.37;102027.25;5038236;28;45579;-83
2022/01/01 10:07:08;;;;;;;;;0.00;0.00;;;;;12.10;71.03;102080.28;5056524;28;47277;-83
2022/01/01 10:09:36;;;;;;;;;0.00;0.00;;;;;12.25;71.03;102092.81;5038303;28;45574;-82
2022/01/01 10:12:05;;;;;;;;;0.00;0.00;;;;;12.01;70.90;102057.44;5042135;28;45418;-84
2022/01/01 10:14:38;;;;;;;;;0.00;0.00;;;;;12.14;70.55;102054.28;5049576;28;45384;-84
2022/01/01 10:17:21;;;;;;;;;0.00;0.00;;;;;11.84;70.10;101990.06;5048817;28;46258;-80
2022/01/01 10:19:49;;;;;;;;;0.00;0.00;;;;;12.05;69.84;102041.00;5049398;28;45458;-83
2022/01/01 10:22:22;;;;;;;;;2.25;0.25;;;;;11.82;69.73;102017.81;5059343;28;44833;-82
2022/01/01 10:27:52;;;;;;;;;0.00;0.00;;;;;12.13;69.62;102051.66;5057456;28;45801;-84
2022/01/01 10:30:24;;;;;;;;;0.00;0.00;;;;;12.20;69.61;102074.44;5060820;28;45409;-82
2022/01/01 10:33:03;;;;;;;;;0.00;0.00;;;;;12.31;69.27;102098.16;5041232;28;45290;-87
2022/01/01 10:35:35;;;;;;;;;0.25;0.25;;;;;12.00;69.12;102029.53;5064944;28;45440;-84
2022/01/01 10:38:04;;;;;;;;;0.00;0.00;;;;;12.09;69.39;102023.69;5045855;28;46327;-85
2022/01/01 10:40:29;;;;;;;;;0.00;0.00;;;;;12.19;69.38;102036.09;5051958;28;45450;-84
2022/01/01 10:42:55;;;;;;;;;0.75;0.00;;;;;12.21;68.72;102012.63;5032957;28;46205;-85
2022/01/01 10:45:39;;;;;;;;;0.00;0.00;;;;;12.61;68.93;102077.91;5033048;28;45402;-81
2022/01/01 10:50:46;;;;;;;;;3.75;0.75;;;;;12.51;68.02;102043.78;5042202;28;45518;-85
2022/01/01 10:53:19;;;;;;;;;0.00;0.00;;;;;12.30;68.14;102012.84;5032335;28;45596;-87
2022/01/01 10:55:48;;;;;;;;;0.00;0.00;;;;;12.70;68.13;102064.19;5046781;28;45316;-88
2022/01/01 10:58:18;;;;;;;;;0.50;0.00;;;;;12.54;68.18;102045.56;5040837;28;48395;-89
2022/01/01 11:00:44;;;;;;;;;1.75;0.75;;;;;12.59;67.57;102051.75;5042984;28;45451;-84
2022/01/01 11:03:22;;;;;;;;;2.25;1.50;;;;;12.95;68.01;102096.94;5037660;28;45557;-90
2022/01/01 11:05:48;;;;;;;;;0.00;0.00;;;;;12.51;67.66;102007.22;5059292;28;45435;-90
2022/01/01 11:08:14;;;;;;;;;0.50;0.50;;;;;12.45;67.39;101978.34;5053743;28;47390;-89
2022/01/01 11:10:41;;;;;;;;;0.00;0.00;;;;;13.05;67.71;102072.75;5034558;28;45372;-83
2022/01/01 11:13:08;;;;;;;;;1.75;1.75;;;;;12.77;67.47;102008.63;5053346;28;45391;-87
2022/01/01 11:15:34;;;;;;;;;0.00;0.00;;;;;13.28;67.16;102080.16;5035540;28;45595;-88
2022/01/01 11:18:01;;;;;;;;;1.25;0.75;;;;;12.84;66.88;101997.44;5041009;28;46894;-85
2022/01/01 11:20:33;;;;;;;;;1.75;0.00;;;;;13.13;67.15;102051.97;5046903;28;45813;-84
2022/01/01 11:23:03;;;;;;;;;0.25;0.00;;;;;12.60;66.77;101969.97;5036477;28;45535;-86
2022/01/01 11:25:29;;;;;;;;;0.00;0.00;;;;;12.66;67.01;101985.75;5044565;28;45787;-83
2022/01/01 11:27:55;;;;;;;;;0.00;0.00;;;;;12.58;67.05;101969.03;5042814;28;47195;-83
2022/01/01 11:30:27;;;;;;;;;6.00;1.00;;;;;13.08;66.80;102039.69;5039542;28;45432;-82
2022/01/01 11:32:55;;;;;;;;;1.00;0.00;;;;;13.24;67.02;102070.50;5038288;28;45701;-84
2022/01/01 11:35:23;;;;;;;;;0.75;0.75;;;;;13.27;66.70;102049.66;5036601;28;45446;-84
2022/01/01 11:38:00;;;;;;;;;0.75;0.75;;;;;13.30;66.55;102051.44;5039869;28;45522;-84
2022/01/01 11:40:31;;;;;;;;;0.00;0.00;;;;;13.29;66.86;102047.03;5043572;28;45300;-84
2022/01/01 11:42:56;;;;;;;;;1.75;0.00;;;;;13.00;66.51;101975.06;5037718;28;45389;-87
2022/01/01 11:45:56;;;;;;;;;1.50;1.50;;;;;13.36;66.29;102046.31;5053866;28;45379;-88
2022/01/01 11:48:36;;;;;;;;;0.25;0.00;;;;;13.37;66.22;102026.25;5013638;28;47289;-89
2022/01/01 11:51:38;;;;;;;;;0.00;0.00;;;;;12.38;66.54;101848.53;5038303;28;45225;-87
2022/01/01 11:54:06;;;;;;;;;0.00;0.00;;;;;13.46;66.38;102023.81;5038178;28;45584;-87
2022/01/01 11:56:50;;;;;;;;;0.75;0.75;;;;;13.47;66.13;102025.56;5063019;28;45439;-85
2022/01/01 11:59:22;;;;;;;;;0.00;0.00;;;;;13.55;66.17;102025.72;5053011;28;47175;-89
2022/01/01 12:01:49;;;;;;;;;0.75;0.75;;;;;13.07;65.79;101922.91;5031492;28;45522;-88
2022/01/01 12:04:31;;;;;;;;;0.25;0.00;;;;;12.83;65.79;101854.53;5043476;28;45497;-87
2022/01/01 12:07:18;;;;;;;;;0.00;0.00;;;;;13.43;65.19;101948.78;5057106;28;45408;-88
2022/01/01 12:10:01;;;;;;;;;0.00;0.00;;;;;13.75;65.56;101999.88;5030434;28;47245;-85
2022/01/01 12:12:49;;;;;;;;;0.75;0.75;;;;;13.80;65.36;101992.09;5026239;28;45511;-91
2022/01/01 12:15:18;;;;;;;;;0.00;0.00;;;;;13.82;65.29;101993.03;5045680;28;45310;-87
2022/01/01 12:17:57;;;;;;;;;0.25;0.25;;;;;13.46;64.70;101944.44;5068174;28;45451;-88
2022/01/01 12:20:46;;;;;;;;;0.00;0.00;;;;;13.30;64.95;101910.22;5040729;28;47561;-87
2022/01/01 12:23:18;;;;;;;;;1.50;0.00;;;;;13.36;64.89;101901.56;5040011;28;45430;-91
2022/01/01 12:25:45;;;;;;;;;1.00;1.00;;;;;13.92;64.29;101981.81;5041953;28;45488;-91
2022/01/01 12:28:17;;;;;;;;;0.25;0.00;;;;;13.55;64.29;101903.66;5046419;28;45548;-89
2022/01/01 12:30:49;;;;;;;;;0.00;0.00;;;;;13.76;64.08;101917.91;5049243;28;45427;-86
2022/01/01 12:33:42;;;;;;;;;1.50;1.00;;;;;14.10;64.49;101963.72;5047679;28;45432;-87
2022/01/01 12:36:19;;;;;;;;;0.00;0.00;;;;;13.81;64.04;101907.47;5043700;28;45633;-88
2022/01/01 12:38:53;;;;;;;;;2.00;0.00;;;;;14.04;64.02;101931.38;5036755;28;45648;-87
2022/01/01 12:41:23;;;;;;;;;1.00;1.00;;;;;13.89;63.74;101897.13;5032398;28;47692;-88
2022/01/01 12:43:50;;;;;;;;;0.00;0.00;;;;;14.24;63.28;101954.31;5062067;28;46007;-86
2022/01/01 12:46:20;;;;;;;;;2.00;0.00;;;;;13.59;63.35;101856.59;5063130;28;45469;-86
2022/01/01 12:48:46;;;;;;;;;1.00;1.00;;;;;13.93;63.35;101940.81;5046371;28;45294;-85
2022/01/01 12:51:21;;;;;;;;;0.00;0.00;;;;;13.93;63.50;101951.28;5040294;28;45477;-83
2022/01/01 12:53:52;;;;;;;;;0.00;0.00;;;;;13.56;63.46;101899.28;5033456;28;44856;-88
2022/01/01 12:56:19;;;;;;;;;0.00;0.00;;;;;13.96;63.42;101934.75;5032609;28;45528;-86
2022/01/01 12:58:47;;;;;;;;;0.25;0.25;;;;;13.66;63.41;101850.59;5034133;28;45629;-84
2022/01/01 13:01:13;;;;;;;;;0.75;0.75;;;;;14.29;63.03;101944.78;5028047;28;46146;-87
2022/01/01 13:03:39;;;;;;;;;0.25;0.25;;;;;13.66;62.83;101840.16;5033467;28;45564;-83
2022/01/01 13:06:07;;;;;;;;;0.75;0.00;;;;;14.07;62.83;101925.28;5033092;28;45392;-88
2022/01/01 13:08:33;;;;;;;;;0.00;0.00;;;;;13.90;62.99;101907.63;5027911;28;45558;-83
2022/01/01 13:10:58;;;;;;;;;0.00;0.00;;;;;14.22;62.88;101960.38;5029881;28;46008;-87
2022/01/01 13:13:28;;;;;;;;;0.00;0.00;;;;;14.05;63.13;101920.03;5040131;28;45795;-89
2022/01/01 13:15:54;;;;;;;;;0.00;0.00;;;;;14.18;62.79;101907.13;5033505;28;45455;-85
2022/01/01 13:18:24;;;;;;;;;0.00;0.00;;;;;13.84;63.05;101847.34;5033840;28;45635;-86
2022/01/01 13:20:49;;;;;;;;;0.00;0.00;;;;;14.02;61.95;101867.63;5042948;28;45355;-87
2022/01/01 13:23:22;;;;;;;;;0.00;0.00;;;;;14.48;62.18;101937.13;5037192;28;45402;-86
2022/01/01 13:25:47;;;;;;;;;0.00;0.00;;;;;13.87;62.05;101805.50;5029799;28;45388;-89
2022/01/01 13:28:17;;;;;;;;;0.00;0.00;;;;;14.42;61.64;101893.41;5039413;28;45425;-88
2022/01/01 13:30:44;;;;;;;;;0.00;0.00;;;;;13.57;61.72;101744.09;5034632;28;46408;-89
2022/01/01 13:33:13;;;;;;;;;0.25;0.00;;;;;14.02;61.13;101819.63;5029071;28;45561;-84
2022/01/01 13:35:38;;;;;;;;;0.00;0.00;;;;;14.30;61.08;101861.81;5042536;28;45584;-86
2022/01/01 13:38:10;;;;;;;;;0.00;0.00;;;;;14.12;60.93;101818.88;5045513;28;45588;-84
2022/01/01 13:40:36;;;;;;;;;1.50;0.00;;;;;14.18;61.53;101824.19;5054236;28;45448;-87
2022/01/01 13:43:09;;;;;;;;;0.00;0.00;;;;;14.53;61.68;101884.78;5044383;28;46113;-85
2022/01/01 13:45:34;;;;;;;;;0.00;0.00;;;;;14.47;61.75;101903.06;5031100;28;45450;-84
2022/01/01 13:48:04;;;;;;;;;0.50;0.50;;;;;14.58;61.92;101938.13;5045925;28;45572;-82
2022/01/01 13:50:38;;;;;;;;;0.25;0.00;;;;;14.22;61.68;101851.28;5035205;28;47253;-87
2022/01/01 13:53:07;;;;;;;;;0.00;0.00;;;;;14.21;61.47;101832.94;5038025;28;45411;-85
2022/01/01 13:55:33;;;;;;;;;0.50;0.50;;;;;14.46;61.05;101862.00;5043857;28;45828;-89
2022/01/01 13:58:03;;;;;;;;;0.00;0.00;;;;;14.62;61.12;101903.25;5050956;28;45714;-88
2022/01/01 14:00:29;;;;;;;;;0.25;0.00;;;;;14.26;61.21;101836.47;5045238;28;45636;-89
2022/01/01 14:02:56;;;;;;;;;0.00;0.00;;;;;14.34;60.97;101839.19;5058212;28;45378;-88
2022/01/01 14:05:23;;;;;;;;;0.00;0.00;;;;;14.49;61.20;101881.25;5038339;28;45318;-88
2022/01/01 14:07:49;;;;;;;;;0.00;0.00;;;;;14.24;61.40;101848.69;5047059;28;45485;-88
2022/01/01 14:10:17;;;;;;;;;0.00;0.00;;;;;14.39;61.22;101859.31;5038158;28;45464;-90
2022/01/01 14:12:45;;;;;;;;;0.00;0.00;;;;;14.19;61.56;101835.53;5043194;28;45377;-87
2022/01/01 14:15:21;;;;;;;;;0.50;0.00;;;;;14.34;61.27;101866.28;5042814;28;45465;-88
2022/01/01 14:18:04;;;;;;;;;0.00;0.00;;;;;14.42;61.33;101897.75;5052938;28;45434;-89
2022/01/01 14:20:32;;;;;;;;;0.50;0.00;;;;;14.13;61.33;101838.97;5032449;28;45351;-89
2022/01/01 14:22:59;;;;;;;;;0.00;0.00;;;;;13.67;61.58;101766.00;5038735;28;45104;-86
2022/01/01 14:25:27;;;;;;;;;0.00;0.00;;;;;14.10;61.25;101841.56;5047973;28;45219;-88
2022/01/01 14:27:53;;;;;;;;;2.00;0.00;;;;;14.14;61.35;101848.56;5045568;28;45416;-91
2022/01/01 14:30:19;;;;;;;;;0.00;0.00;;;;;13.66;61.24;101770.34;5063187;28;47504;-85